Terminal Aerodrome Forecast
Issued by NWS

Home | Current Version | Previous Version | Text Only | Print | Product List | Glossary Off
Versions: 1 2 3 4 5 6 7 8 9 10 11 12

532
FTUS43 KBIS 241125
TAFMOT
TAF
KMOT 241125Z 2412/2512 27010G17KT P6SM SKC
     FM241700 30015G25KT P6SM FEW050
     FM250100 31009KT P6SM FEW050
     FM250600 21004KT P6SM SKC=

USA.gov is the U.S. government's official web portal to all federal, state and local government web resources and services.